createdAt,value
2022-11-04T00:02:01.988Z,6.45
2022-11-04T00:06:59.950Z,6.88
2022-11-04T00:12:17.400Z,6.20
2022-11-04T00:17:22.595Z,6.07
2022-11-04T00:22:39.275Z,7.22
2022-11-04T00:27:55.106Z,6.80
2022-11-04T00:33:10.676Z,7.07
2022-11-04T00:38:08.113Z,7.15
2022-11-04T00:43:05.556Z,7.80
2022-11-04T00:48:02.781Z,6.07
2022-11-04T00:53:04.031Z,6.03
2022-11-04T00:58:01.282Z,6.53
2022-11-04T01:03:00.280Z,6.72
2022-11-04T01:07:57.784Z,6.28
2022-11-04T01:12:55.022Z,6.13
2022-11-04T01:17:52.341Z,7.57
2022-11-04T01:22:49.520Z,7.53
2022-11-04T01:27:46.827Z,7.35
2022-11-04T01:32:44.351Z,6.30
2022-11-04T01:37:41.545Z,7.72
2022-11-04T01:42:38.711Z,6.63
2022-11-04T01:48:03.333Z,7.68
2022-11-04T01:53:10.806Z,7.80
2022-11-04T01:58:14.727Z,7.57
2022-11-04T02:03:26.568Z,7.50
2022-11-04T02:08:24.209Z,7.32
2022-11-04T02:13:21.466Z,6.60
2022-11-04T02:18:25.745Z,7.80
2022-11-04T02:23:32.948Z,6.53
2022-11-04T02:29:07.580Z,6.85
2022-11-04T02:34:39.001Z,6.53
2022-11-04T02:45:15.862Z,6.90
2022-11-04T02:50:25.790Z,7.15
2022-11-04T02:55:32.897Z,6.37
2022-11-04T03:00:31.620Z,6.60
2022-11-04T03:05:34.589Z,8.35
2022-11-04T03:10:40.136Z,7.63
2022-11-04T03:15:40.715Z,7.13
2022-11-04T03:20:39.876Z,7.18
2022-11-04T03:25:44.289Z,6.50
2022-11-04T03:30:57.595Z,8.15
2022-11-04T03:35:54.887Z,7.65
2022-11-04T03:40:52.422Z,8.95
2022-11-04T03:45:51.060Z,8.82
2022-11-04T03:50:50.075Z,8.02
2022-11-04T03:56:18.221Z,8.38
2022-11-04T04:01:34.587Z,9.05
2022-11-04T04:06:36.700Z,8.98
2022-11-04T04:11:53.920Z,9.02
2022-11-04T04:16:54.184Z,9.70
2022-11-04T04:27:16.305Z,10.23
2022-11-04T04:32:14.871Z,9.95
2022-11-04T04:37:16.884Z,8.98
2022-11-04T04:42:33.325Z,9.23
2022-11-04T04:47:46.844Z,8.60
2022-11-04T04:52:53.739Z,7.88
2022-11-04T04:57:58.561Z,8.33
2022-11-04T05:02:57.271Z,8.13
2022-11-04T05:07:54.890Z,8.23
2022-11-04T05:13:20.728Z,8.23
2022-11-04T05:18:19.603Z,8.52
2022-11-04T05:23:18.015Z,9.77
2022-11-04T05:28:15.313Z,11.15
2022-11-04T05:33:12.875Z,10.82
2022-11-04T05:38:10.256Z,9.75
2022-11-04T05:43:08.348Z,10.02
2022-11-04T05:48:06.201Z,9.25
2022-11-04T05:53:03.499Z,8.32
2022-11-04T05:58:00.707Z,7.22
2022-11-04T06:02:58.396Z,7.75
2022-11-04T06:07:57.059Z,7.22
2022-11-04T06:12:54.774Z,7.78
2022-11-04T06:17:52.260Z,7.80
2022-11-04T06:22:49.446Z,6.90
2022-11-04T06:27:47.513Z,7.47
2022-11-04T06:32:44.986Z,7.00
2022-11-04T06:37:42.427Z,6.10
2022-11-04T06:42:40.588Z,6.13
2022-11-04T06:47:37.872Z,5.40
2022-11-04T06:52:41.938Z,5.55
2022-11-04T06:57:39.846Z,6.20
2022-11-04T07:02:39.018Z,6.43
2022-11-04T07:07:36.439Z,7.55
2022-11-04T07:12:33.661Z,6.00
2022-11-04T07:17:31.156Z,7.05
2022-11-04T07:22:28.453Z,6.82
2022-11-04T07:27:25.727Z,6.55
2022-11-04T07:32:23.404Z,7.72
2022-11-04T07:37:20.576Z,8.13
2022-11-04T07:42:17.829Z,6.47
2022-11-04T07:47:15.131Z,6.20
2022-11-04T07:52:12.391Z,7.85
2022-11-04T07:57:09.801Z,7.15
2022-11-04T08:02:07.815Z,9.57
2022-11-04T08:07:07.796Z,8.57
2022-11-04T08:12:06.436Z,7.85
2022-11-04T08:17:03.967Z,7.28
2022-11-04T08:22:01.197Z,6.22
2022-11-04T08:26:58.422Z,7.13
2022-11-04T08:31:57.005Z,6.95
2022-11-04T08:36:57.576Z,7.93
2022-11-04T08:41:54.910Z,7.10
2022-11-04T08:46:52.747Z,7.30
2022-11-04T08:51:57.397Z,6.40
2022-11-04T08:56:54.863Z,6.18
2022-11-04T09:01:52.541Z,5.85
2022-11-04T09:06:51.201Z,5.78
2022-11-04T09:11:49.408Z,7.15
2022-11-04T09:16:46.802Z,4.32
2022-11-04T09:21:44.368Z,5.05
2022-11-04T09:26:41.897Z,2.65
2022-11-04T09:31:39.600Z,3.45
2022-11-04T09:36:36.839Z,3.13
2022-11-04T09:41:51.471Z,3.10
2022-11-04T09:46:51.321Z,2.25
2022-11-04T09:51:54.826Z,3.10
2022-11-04T09:56:57.750Z,2.42
2022-11-04T10:02:08.825Z,1.92
2022-11-04T10:07:20.762Z,2.50
2022-11-04T10:12:37.051Z,2.58
2022-11-04T10:18:02.003Z,2.53
2022-11-04T10:23:28.946Z,2.50
2022-11-04T10:28:39.169Z,2.75
2022-11-04T10:33:42.363Z,2.10
2022-11-04T10:38:55.728Z,3.42
2022-11-04T10:43:56.806Z,3.25
2022-11-04T10:49:21.210Z,2.63
2022-11-04T10:54:18.950Z,3.13
2022-11-04T10:59:51.604Z,3.20
2022-11-04T11:04:49.409Z,1.88
2022-11-04T11:09:51.050Z,1.08
2022-11-04T11:14:50.877Z,1.00
2022-11-04T11:20:03.145Z,0.90
2022-11-04T11:25:26.945Z,1.10
2022-11-04T11:30:38.871Z,1.00
2022-11-04T11:35:47.202Z,0.60
2022-11-04T11:41:03.787Z,0.63
2022-11-04T11:46:03.720Z,0.65
2022-11-04T11:51:01.064Z,0.80
2022-11-04T11:56:45.867Z,0.90
2022-11-04T12:01:54.579Z,0.50
2022-11-04T12:12:37.324Z,0.68
2022-11-04T12:18:03.771Z,0.85
2022-11-04T12:23:30.516Z,0.55
2022-11-04T12:28:51.246Z,0.77
2022-11-04T12:34:00.353Z,0.63
2022-11-04T12:39:18.079Z,0.50
2022-11-04T12:44:55.540Z,0.70
2022-11-04T12:50:08.261Z,0.45
2022-11-04T12:55:45.344Z,0.73
2022-11-04T13:00:45.979Z,0.47
2022-11-04T13:05:54.359Z,0.68
2022-11-04T13:11:33.331Z,0.43
2022-11-04T13:16:42.797Z,0.40
2022-11-04T13:21:41.024Z,0.40
2022-11-04T13:26:38.640Z,0.40
2022-11-04T13:32:00.517Z,0.47
2022-11-04T13:37:32.930Z,0.40
2022-11-04T13:42:43.175Z,0.50
2022-11-04T13:47:55.986Z,1.08
2022-11-04T13:52:53.639Z,1.20
2022-11-04T13:58:00.480Z,0.75
2022-11-04T14:02:58.961Z,0.70
2022-11-04T14:08:02.288Z,0.40
2022-11-04T14:13:48.540Z,0.30
2022-11-04T14:18:49.407Z,0.57
2022-11-04T14:23:57.461Z,0.67
2022-11-04T14:29:06.522Z,0.32
2022-11-04T14:34:05.833Z,0.60
2022-11-04T14:39:12.165Z,0.53
2022-11-04T14:44:09.489Z,0.50
2022-11-04T14:49:07.466Z,0.50
2022-11-04T14:54:21.738Z,1.08
2022-11-04T14:59:27.633Z,0.90
2022-11-04T15:04:29.499Z,0.82
2022-11-04T15:09:39.835Z,0.68
2022-11-04T15:14:38.226Z,1.08
2022-11-04T15:19:36.391Z,1.83
2022-11-04T15:24:35.874Z,1.50
2022-11-04T15:29:33.541Z,0.70
2022-11-04T15:34:32.199Z,0.90
2022-11-04T15:39:34.985Z,1.10
2022-11-04T15:44:35.449Z,1.45
2022-11-04T15:49:35.561Z,3.20
2022-11-04T15:54:39.583Z,2.55
2022-11-04T15:59:37.962Z,2.55
2022-11-04T16:04:36.753Z,2.40
2022-11-04T16:09:52.885Z,2.15
2022-11-04T16:14:52.463Z,2.25
2022-11-04T16:19:55.994Z,2.35
2022-11-04T16:24:55.798Z,1.85
2022-11-04T16:30:22.705Z,2.22
2022-11-04T16:35:25.613Z,2.03
2022-11-04T16:40:24.417Z,2.13
2022-11-04T16:45:29.824Z,1.95
2022-11-04T16:50:27.929Z,2.22
2022-11-04T16:55:25.863Z,2.15
2022-11-04T17:00:25.705Z,5.72
2022-11-04T17:05:23.216Z,5.60
2022-11-04T17:10:25.122Z,7.43
2022-11-04T17:15:23.812Z,8.38
2022-11-04T17:20:21.059Z,3.92
2022-11-04T17:25:24.376Z,5.93
2022-11-04T17:30:23.036Z,4.47
2022-11-04T17:35:20.547Z,7.88
2022-11-04T17:40:20.132Z,9.80
2022-11-04T17:45:17.552Z,5.60
2022-11-04T17:50:14.776Z,4.45
2022-11-04T17:55:16.543Z,5.30
2022-11-04T18:00:15.652Z,6.18
2022-11-04T18:05:16.307Z,5.70
2022-11-04T18:10:13.637Z,5.05
2022-11-04T18:15:17.213Z,4.30
2022-11-04T18:20:15.604Z,4.90
2022-11-04T18:25:13.779Z,4.38
2022-11-04T18:30:11.598Z,5.82
2022-11-04T18:35:09.204Z,5.78
2022-11-04T18:40:07.457Z,6.55
2022-11-04T18:45:05.037Z,8.07
2022-11-04T18:50:02.265Z,6.25
2022-11-04T18:54:59.796Z,5.22
2022-11-04T18:59:57.610Z,6.95
2022-11-04T19:04:55.020Z,6.68
2022-11-04T19:09:52.377Z,7.63
2022-11-04T19:14:49.730Z,8.27
2022-11-04T19:19:47.097Z,11.88
2022-11-04T19:24:44.391Z,7.10
2022-11-04T19:29:41.635Z,7.47
2022-11-04T19:34:39.259Z,5.68
2022-11-04T19:39:37.109Z,6.35
2022-11-04T19:44:34.362Z,7.70
2022-11-04T19:49:31.772Z,7.65
2022-11-04T19:54:29.579Z,9.38
2022-11-04T19:59:26.932Z,8.35
2022-11-04T20:04:24.147Z,6.60
2022-11-04T20:09:22.534Z,6.15
2022-11-04T20:14:19.853Z,4.95
2022-11-04T20:19:22.288Z,5.30
2022-11-04T20:24:20.113Z,4.40
2022-11-04T20:29:18.050Z,9.02
2022-11-04T20:34:16.092Z,12.93
2022-11-04T20:39:16.325Z,10.15
2022-11-04T20:49:12.417Z,8.70
2022-11-04T20:54:10.825Z,6.20
2022-11-04T20:59:09.859Z,7.50
2022-11-04T21:04:11.548Z,6.25
2022-11-04T21:09:11.799Z,5.50
2022-11-04T21:14:12.870Z,5.82
2022-11-04T21:19:12.218Z,6.13
2022-11-04T21:24:12.977Z,6.10
2022-11-04T21:29:14.352Z,6.72
2022-11-04T21:34:12.382Z,6.43
2022-11-04T21:39:11.300Z,7.65
2022-11-04T21:44:10.815Z,7.45
2022-11-04T21:49:11.703Z,7.75
2022-11-04T21:54:09.047Z,7.60
2022-11-04T21:59:06.816Z,7.00
2022-11-04T22:04:04.593Z,6.85
2022-11-04T22:09:02.176Z,6.75
2022-11-04T22:14:04.827Z,7.28
2022-11-04T22:19:04.262Z,7.20
2022-11-04T22:24:02.205Z,7.23
2022-11-04T22:29:00.114Z,9.25
2022-11-04T22:33:57.922Z,9.50
2022-11-04T22:38:56.122Z,10.95
2022-11-04T22:43:53.607Z,10.20
2022-11-04T22:48:50.960Z,10.75
2022-11-04T22:54:00.085Z,8.35
2022-11-04T22:59:01.309Z,8.63
2022-11-04T23:03:58.819Z,6.68
2022-11-04T23:09:00.040Z,6.18
2022-11-04T23:14:20.847Z,6.47
2022-11-04T23:19:18.477Z,5.77
2022-11-04T23:24:33.982Z,5.00
2022-11-04T23:29:49.859Z,4.82
2022-11-04T23:35:06.470Z,4.88
2022-11-04T23:40:03.901Z,5.05
2022-11-04T23:45:19.465Z,4.50
2022-11-04T23:50:35.706Z,5.68
2022-11-04T23:55:51.490Z,5.03
